Time;durP1;ratioP1;P1;durP2;ratioP2;P2;SDS_P1;SDS_P2;PMS_P1;PMS_P2;Temp;Humidity;BMP_temperature;BMP_pressure;BME280_temperature;BME280_humidity;BME280_pressure;Samples;Min_cycle;Max_cycle;Signal;HPM_P1;HPM_P2
2021/03/04 00:01:55;;;;;;;49.72;23.60;;;;;;;7.66;100.00;98302.19;5127662;27;20126;-78
2021/03/04 00:04:22;;;;;;;48.00;23.88;;;;;;;7.67;100.00;99606.44;5128409;27;20043;-78
2021/03/04 00:06:48;;;;;;;51.45;23.27;;;;;;;7.63;100.00;98302.75;5127021;27;20044;-78
2021/03/04 00:09:14;;;;;;;52.72;23.30;;;;;;;7.69;100.00;98302.41;5125722;27;20051;-78
2021/03/04 00:11:40;;;;;;;49.95;22.63;;;;;;;7.64;100.00;98297.06;5110400;28;20054;-78
2021/03/04 00:14:06;;;;;;;49.83;22.77;;;;;;;7.66;100.00;98300.31;5091845;28;20040;-78
2021/03/04 00:16:32;;;;;;;59.42;24.88;;;;;;;7.64;100.00;98288.19;5115412;28;20051;-78
2021/03/04 00:18:59;;;;;;;48.47;23.05;;;;;;;7.61;100.00;98291.44;5103527;28;20052;-79
2021/03/04 00:21:25;;;;;;;49.72;23.13;;;;;;;7.60;100.00;98292.53;5121577;28;20050;-79
2021/03/04 00:23:51;;;;;;;56.03;24.05;;;;;;;7.70;100.00;98289.75;5110786;27;20048;-79
2021/03/04 00:26:17;;;;;;;62.47;24.20;;;;;;;7.65;100.00;98281.72;5094923;28;20054;-78
2021/03/04 00:28:44;;;;;;;53.80;24.02;;;;;;;7.64;100.00;98277.41;5109103;28;20398;-79
2021/03/04 00:31:10;;;;;;;50.33;23.05;;;;;;;7.75;100.00;98278.94;5091207;28;20043;-79
2021/03/04 00:33:36;;;;;;;55.15;24.40;;;;;;;7.68;100.00;98273.88;5090630;28;20043;-79
2021/03/04 00:36:03;;;;;;;54.72;23.77;;;;;;;7.67;100.00;98271.44;5129003;27;20055;-78
2021/03/04 00:38:29;;;;;;;56.13;23.73;;;;;;;7.68;100.00;98263.09;5093915;28;20070;-78
2021/03/04 00:40:55;;;;;;;49.67;23.80;;;;;;;7.70;100.00;98260.91;5110022;28;20073;-79
2021/03/04 00:43:21;;;;;;;47.30;24.58;;;;;;;7.66;100.00;98259.06;5109713;28;20043;-78
2021/03/04 00:45:48;;;;;;;54.90;23.38;;;;;;;7.63;100.00;98257.75;5118686;27;20044;-77
2021/03/04 00:48:15;;;;;;;52.90;23.23;;;;;;;7.51;100.00;98268.84;5081018;28;20039;-79
2021/03/04 00:50:42;;;;;;;56.22;24.65;;;;;;;7.40;100.00;98255.75;5115151;28;20044;-78
2021/03/04 00:53:08;;;;;;;55.65;24.27;;;;;;;7.31;100.00;98257.41;5080869;28;20121;-79
2021/03/04 00:55:34;;;;;;;57.13;24.98;;;;;;;7.24;100.00;98255.03;5113265;28;20046;-79
2021/03/04 00:58:00;;;;;;;52.75;24.73;;;;;;;7.20;100.00;98248.56;5097330;28;20050;-78
2021/03/04 01:00:26;;;;;;;54.55;24.05;;;;;;;7.16;100.00;98244.84;5114435;28;20043;-78
2021/03/04 01:02:54;;;;;;;56.83;23.88;;;;;;;7.18;100.00;98248.06;5114723;28;20032;-79
2021/03/04 01:05:21;;;;;;;55.20;25.33;;;;;;;7.11;100.00;98239.47;5115657;28;20067;-79
2021/03/04 01:07:47;;;;;;;56.17;24.52;;;;;;;6.95;100.00;98246.00;5114829;28;20051;-79
2021/03/04 01:10:17;;;;;;;54.45;23.73;;;;;;;6.85;100.00;98236.09;5097533;28;20047;-79
2021/03/04 01:12:44;;;;;;;59.20;24.30;;;;;;;6.87;100.00;98227.75;5115503;28;20048;-79
2021/03/04 01:15:13;;;;;;;58.40;26.35;;;;;;;6.94;100.00;98222.09;5113970;28;20482;-78
2021/03/04 01:17:40;;;;;;;60.75;25.02;;;;;;;7.11;100.00;98219.81;5114909;28;20678;-80
2021/03/04 01:20:09;;;;;;;61.15;24.38;;;;;;;7.12;100.00;98219.56;5115438;28;20515;-78
2021/03/04 01:22:36;;;;;;;56.42;24.13;;;;;;;7.24;100.00;98233.50;5113334;28;20044;-78
2021/03/04 01:25:05;;;;;;;59.00;24.60;;;;;;;7.26;100.00;98225.94;5115324;28;20059;-79
2021/03/04 01:27:31;;;;;;;55.70;24.98;;;;;;;7.13;100.00;98221.16;5116336;28;20045;-78
2021/03/04 01:29:57;;;;;;;53.75;24.23;;;;;;;7.06;100.00;98212.59;5114364;28;20044;-78
2021/03/04 01:32:23;;;;;;;53.88;24.52;;;;;;;7.08;100.00;98217.69;5113598;28;20490;-79
2021/03/04 01:34:50;;;;;;;57.55;24.80;;;;;;;7.10;100.00;98216.31;5115197;27;20039;-78
2021/03/04 01:37:17;;;;;;;53.25;25.67;;;;;;;7.14;100.00;98217.41;5114978;28;20043;-79
2021/03/04 01:39:43;;;;;;;54.00;25.55;;;;;;;7.15;100.00;98194.75;5114287;28;20048;-79
2021/03/04 01:42:09;;;;;;;52.22;24.60;;;;;;;7.21;100.00;98207.13;5112625;28;20049;-79
2021/03/04 01:44:37;;;;;;;62.42;26.42;;;;;;;7.18;100.00;98198.78;5080071;28;20058;-79
2021/03/04 01:47:04;;;;;;;58.17;25.02;;;;;;;7.14;100.00;98195.03;5113009;28;20032;-78
2021/03/04 01:49:31;;;;;;;60.05;24.85;;;;;;;7.11;100.00;98196.41;5114653;28;20103;-79
2021/03/04 01:51:57;;;;;;;57.85;25.25;;;;;;;7.11;100.00;98191.03;5096459;28;20048;-79
2021/03/04 01:54:24;;;;;;;62.70;26.30;;;;;;;7.05;100.00;98189.44;5114047;28;20038;-79
2021/03/04 01:56:51;;;;;;;54.38;24.60;;;;;;;7.02;100.00;98200.75;5111396;28;20054;-79
2021/03/04 01:59:17;;;;;;;53.33;26.23;;;;;;;7.01;100.00;98191.09;5095864;28;20046;-78
2021/03/04 02:01:44;;;;;;;55.58;24.80;;;;;;;7.03;100.00;98188.91;5116581;28;20044;-79
2021/03/04 02:04:10;;;;;;;58.20;26.27;;;;;;;7.04;100.00;98179.75;5117069;28;20289;-78
2021/03/04 02:07:05;;;;;;;57.42;25.35;;;;;;;7.15;100.00;98170.53;5114906;28;20441;-79
2021/03/04 02:09:34;;;;;;;54.25;25.23;;;;;;;7.30;100.00;98162.34;5112746;28;20051;-78
2021/03/04 02:12:19;;;;;;;54.75;25.35;;;;;;;7.37;100.00;98176.31;5112449;28;20044;-79
2021/03/04 02:14:58;;;;;;;60.97;25.77;;;;;;;7.41;100.00;98168.44;5113900;28;20071;-79
2021/03/04 02:17:28;;;;;;;65.20;26.42;;;;;;;7.42;100.00;98170.06;5114024;28;20055;-79
2021/03/04 02:20:10;;;;;;;59.80;25.90;;;;;;;7.46;100.00;98155.75;5112416;28;20036;-79
2021/03/04 02:22:39;;;;;;;58.70;26.08;;;;;;;7.44;100.00;98168.72;5113390;27;20055;-79
2021/03/04 02:25:30;;;;;;;60.03;27.13;;;;;;;7.36;100.00;98161.22;5112851;28;20050;-79
2021/03/04 02:27:58;;;;;;;59.67;27.40;;;;;;;7.29;100.00;98149.16;5112778;28;20046;-78
2021/03/04 02:30:35;;;;;;;62.47;27.73;;;;;;;7.32;100.00;98165.56;5112385;28;20043;-78
2021/03/04 02:33:08;;;;;;;66.60;27.00;;;;;;;7.27;100.00;98160.22;5112042;28;20050;-79
2021/03/04 02:35:36;;;;;;;66.03;28.23;;;;;;;7.36;100.00;98165.78;5114695;28;20039;-79
2021/03/04 02:38:07;;;;;;;59.05;27.30;;;;;;;7.29;100.00;98155.34;5094592;28;20040;-77
2021/03/04 02:40:34;;;;;;;61.08;26.33;;;;;;;7.30;100.00;98156.94;5098435;28;20054;-79
2021/03/04 02:43:05;;;;;;;66.38;27.13;;;;;;;7.33;100.00;98153.69;5087535;28;20054;-78
2021/03/04 02:45:31;;;;;;;64.05;27.13;;;;;;;7.26;100.00;98139.75;5105952;28;20058;-79
2021/03/04 02:47:58;;;;;;;67.03;28.55;;;;;;;7.25;100.00;98143.53;5094702;28;20043;-78
2021/03/04 02:50:25;;;;;;;62.80;27.55;;;;;;;7.20;100.00;98148.16;5102720;28;20499;-78
2021/03/04 02:52:52;;;;;;;60.15;28.83;;;;;;;7.12;100.00;98132.59;5089561;28;20044;-77
2021/03/04 02:55:19;;;;;;;63.10;28.38;;;;;;;7.10;100.00;98140.16;5087400;28;20055;-78
2021/03/04 02:57:47;;;;;;;66.00;29.20;;;;;;;7.06;100.00;98133.72;5088813;28;20051;-79
2021/03/04 03:00:18;;;;;;;63.83;27.85;;;;;;;7.08;100.00;98142.31;5092476;28;20058;-79
2021/03/04 03:02:45;;;;;;;65.53;28.52;;;;;;;7.11;100.00;98142.56;5094392;28;20075;-77
2021/03/04 03:05:13;;;;;;;61.83;29.70;;;;;;;7.16;100.00;98134.44;5111986;28;20048;-77
2021/03/04 03:07:44;;;;;;;67.55;29.25;;;;;;;7.15;100.00;98130.13;5111790;28;20040;-78
2021/03/04 03:10:13;;;;;;;61.72;28.50;;;;;;;7.16;100.00;98115.59;5111463;28;20047;-77
2021/03/04 03:12:43;;;;;;;67.70;29.25;;;;;;;7.15;100.00;98111.28;5109400;28;20047;-77
2021/03/04 03:15:12;;;;;;;76.97;30.08;;;;;;;7.13;100.00;98107.28;5109528;28;20043;-78
2021/03/04 03:17:38;;;;;;;66.68;30.25;;;;;;;7.06;100.00;98117.56;5091705;28;20052;-78
2021/03/04 03:20:10;;;;;;;67.55;29.77;;;;;;;7.00;100.00;98105.22;5087238;27;20108;-79
2021/03/04 03:22:38;;;;;;;63.85;30.42;;;;;;;7.01;100.00;98096.88;5113465;27;20054;-78
2021/03/04 03:25:10;;;;;;;66.32;30.33;;;;;;;7.01;100.00;98114.91;5130190;27;20106;-77
2021/03/04 03:27:37;;;;;;;66.95;29.77;;;;;;;7.02;100.00;98114.63;5130564;27;20051;-78
2021/03/04 03:30:11;;;;;;;68.43;30.63;;;;;;;7.01;100.00;98109.53;5128997;27;20050;-79
2021/03/04 03:32:45;;;;;;;67.18;28.42;;;;;;;7.08;100.00;98108.13;5129195;28;20051;-77
2021/03/04 03:35:12;;;;;;;69.10;28.98;;;;;;;7.17;100.00;98102.94;5131086;27;20051;-77
2021/03/04 03:37:39;;;;;;;60.53;29.17;;;;;;;7.22;100.00;98102.91;5130887;27;20125;-78
2021/03/04 03:40:09;;;;;;;66.55;30.95;;;;;;;7.25;100.00;98095.06;5112726;28;20131;-78
2021/03/04 03:42:37;;;;;;;69.53;28.42;;;;;;;7.26;100.00;98093.97;5112090;28;20039;-76
2021/03/04 03:45:06;;;;;;;68.35;28.85;;;;;;;7.22;100.00;98090.25;5131407;27;20045;-78
2021/03/04 03:47:35;;;;;;;63.92;29.17;;;;;;;7.13;100.00;98091.13;5113730;28;20042;-79
2021/03/04 03:50:20;;;;;;;65.55;29.25;;;;;;;7.15;100.00;98089.75;5132226;28;20123;-79
2021/03/04 03:52:49;;;;;;;73.82;29.92;;;;;;;7.14;100.00;98085.47;5131401;27;20051;-78
2021/03/04 03:55:15;;;;;;;59.33;28.33;;;;;;;7.17;100.00;98089.50;5113155;28;20047;-78
2021/03/04 03:57:45;;;;;;;60.90;28.42;;;;;;;7.14;100.00;98081.97;5132046;27;20038;-77
2021/03/04 04:00:12;;;;;;;70.10;29.88;;;;;;;7.18;100.00;98075.72;5137066;28;20046;-79
2021/03/04 04:02:39;;;;;;;74.07;30.00;;;;;;;7.21;100.00;98077.06;5140938;27;20055;-78
2021/03/04 04:05:07;;;;;;;61.40;29.17;;;;;;;7.23;100.00;98072.19;5140727;27;20043;-78
2021/03/04 04:07:33;;;;;;;65.18;30.63;;;;;;;7.24;100.00;98066.53;5141322;27;20134;-79
2021/03/04 04:10:03;;;;;;;69.38;30.58;;;;;;;7.32;100.00;98068.63;5139610;28;20035;-79
2021/03/04 04:12:29;;;;;;;67.00;31.35;;;;;;;7.33;100.00;98058.66;5140662;27;20043;-79
2021/03/04 04:14:55;;;;;;;70.70;30.48;;;;;;;7.37;100.00;98067.78;5117231;28;20065;-78
2021/03/04 04:17:22;;;;;;;63.45;30.48;;;;;;;7.32;100.00;98055.16;5133049;28;20043;-78
2021/03/04 04:19:49;;;;;;;72.07;30.85;;;;;;;7.39;100.00;98062.91;5117815;27;20078;-79
2021/03/04 04:22:19;;;;;;;68.28;30.90;;;;;;;7.42;100.00;98059.63;5140680;27;20036;-78
2021/03/04 04:24:46;;;;;;;69.05;30.45;;;;;;;7.44;100.00;98055.56;5138974;27;20036;-78
2021/03/04 04:27:12;;;;;;;72.90;30.60;;;;;;;7.56;100.00;98044.44;5139924;27;20043;-79
2021/03/04 04:29:41;;;;;;;71.72;31.13;;;;;;;7.65;100.00;98044.59;5119063;27;20681;-79
2021/03/04 04:32:07;;;;;;;68.75;31.67;;;;;;;7.63;100.00;98038.69;5135909;27;20050;-79
2021/03/04 04:34:34;;;;;;;66.63;29.83;;;;;;;7.67;100.00;98058.56;5136461;27;20518;-79
2021/03/04 04:37:00;;;;;;;71.82;29.92;;;;;;;7.57;100.00;98047.91;5134510;27;20047;-78
2021/03/04 04:39:26;;;;;;;69.20;30.13;;;;;;;7.56;100.00;98046.31;5134541;27;20053;-79
2021/03/04 04:41:53;;;;;;;74.43;30.52;;;;;;;7.63;100.00;98041.38;5134389;27;20058;-79
2021/03/04 04:44:19;;;;;;;66.32;29.63;;;;;;;7.66;100.00;98033.53;5134628;27;20043;-79
2021/03/04 04:46:48;;;;;;;66.03;29.33;;;;;;;7.76;100.00;98035.31;5117681;27;20043;-78
2021/03/04 04:49:14;;;;;;;66.68;29.58;;;;;;;7.76;100.00;98028.03;5135876;27;20039;-78
2021/03/04 04:51:41;;;;;;;75.28;30.42;;;;;;;7.86;100.00;98032.50;5117852;27;20042;-78
2021/03/04 04:54:07;;;;;;;79.15;30.95;;;;;;;7.97;100.00;98039.38;5134306;27;20039;-79
2021/03/04 04:56:33;;;;;;;72.38;30.30;;;;;;;8.05;100.00;98038.75;5133811;27;20035;-77
2021/03/04 04:58:59;;;;;;;72.88;28.90;;;;;;;8.17;100.00;98028.34;5093436;28;20040;-77
2021/03/04 05:01:26;;;;;;;78.90;30.85;;;;;;;8.20;100.00;98016.19;5088604;28;20048;-78
2021/03/04 05:03:52;;;;;;;65.80;29.15;;;;;;;8.31;100.00;98026.56;5106388;28;20115;-78
2021/03/04 05:06:20;;;;;;;72.50;29.33;;;;;;;8.31;100.00;98020.38;5097297;28;20047;-79
2021/03/04 05:08:49;;;;;;;64.05;30.33;;;;;;;8.30;100.00;98008.78;5098932;28;20173;-78
2021/03/04 05:11:16;;;;;;;68.15;28.10;;;;;;;8.24;100.00;98014.50;5093179;28;20689;-79
2021/03/04 05:13:44;;;;;;;68.80;27.20;;;;;;;8.18;100.00;98000.28;5092825;28;20037;-78
2021/03/04 05:16:11;;;;;;;68.47;30.20;;;;;;;8.10;100.00;98012.50;5112450;28;20534;-78
2021/03/04 05:18:37;;;;;;;67.55;28.45;;;;;;;8.06;100.00;98008.78;5112788;28;20417;-77
2021/03/04 05:21:05;;;;;;;71.13;28.50;;;;;;;8.10;100.00;98012.50;5114141;28;20482;-78
2021/03/04 05:23:31;;;;;;;69.15;29.13;;;;;;;8.05;100.00;98004.47;5113794;28;20044;-77
2021/03/04 05:25:58;;;;;;;65.70;29.00;;;;;;;8.05;100.00;98007.19;5112965;28;20082;-77
2021/03/04 05:28:24;;;;;;;67.00;31.17;;;;;;;8.03;100.00;97998.59;5113056;28;20529;-77
2021/03/04 05:30:52;;;;;;;63.38;28.20;;;;;;;8.14;100.00;98002.75;5114245;27;20047;-77
2021/03/04 05:33:19;;;;;;;64.30;29.45;;;;;;;8.18;100.00;97996.78;5114736;27;20067;-78
2021/03/04 05:35:46;;;;;;;74.60;30.27;;;;;;;8.15;100.00;97990.09;5112175;28;20047;-78
2021/03/04 05:38:13;;;;;;;73.55;30.63;;;;;;;8.20;100.00;97997.31;5111955;28;20121;-78
2021/03/04 05:40:40;;;;;;;73.30;30.83;;;;;;;8.15;100.00;97990.88;5105480;28;20048;-78
2021/03/04 05:43:06;;;;;;;68.40;31.88;;;;;;;8.03;100.00;97982.41;5104692;28;20043;-78
2021/03/04 05:45:35;;;;;;;76.47;32.42;;;;;;;7.87;100.00;97988.28;5113274;28;20122;-78
2021/03/04 05:48:07;;;;;;;81.28;35.05;;;;;;;7.70;100.00;97985.25;5112915;28;20566;-77
2021/03/04 05:50:36;;;;;;;83.22;35.13;;;;;;;7.58;100.00;97984.88;5110676;28;20050;-78
2021/03/04 05:53:13;;;;;;;83.80;36.58;;;;;;;7.46;100.00;97985.25;5111566;28;20040;-78
2021/03/04 05:55:43;;;;;;;78.78;35.75;;;;;;;7.40;100.00;97979.13;5110191;28;20047;-79
2021/03/04 05:58:11;;;;;;;85.78;37.75;;;;;;;7.38;100.00;97989.38;5111814;28;20483;-76
2021/03/04 06:00:40;;;;;;;89.53;37.28;;;;;;;7.39;100.00;97982.91;5112800;28;20554;-76
2021/03/04 06:03:07;;;;;;;80.55;35.70;;;;;;;7.37;100.00;97971.63;5112796;28;20051;-78
2021/03/04 06:05:34;;;;;;;83.60;35.00;;;;;;;7.45;100.00;97973.69;5110899;28;20048;-78
2021/03/04 06:08:05;;;;;;;72.55;34.13;;;;;;;7.45;100.00;97972.88;5093260;28;20073;-78
2021/03/04 06:10:32;;;;;;;80.40;34.70;;;;;;;7.52;100.00;97982.22;5109088;28;20047;-77
2021/03/04 06:13:00;;;;;;;90.97;35.95;;;;;;;7.49;100.00;97972.00;5110659;28;20051;-77
2021/03/04 06:15:28;;;;;;;88.00;36.70;;;;;;;7.43;100.00;97962.38;5102852;28;20632;-78
2021/03/04 06:18:00;;;;;;;88.32;37.22;;;;;;;7.46;100.00;97977.16;5073618;28;20074;-78
2021/03/04 06:20:41;;;;;;;84.68;36.78;;;;;;;7.40;100.00;97979.13;5073486;28;20075;-78
2021/03/04 06:23:08;;;;;;;81.07;36.78;;;;;;;7.35;100.00;97971.09;5090202;28;20543;-78
2021/03/04 06:25:38;;;;;;;90.63;39.35;;;;;;;7.29;100.00;97974.13;5109407;27;20058;-78
2021/03/04 06:28:08;;;;;;;95.38;38.05;;;;;;;7.22;100.00;97974.47;5095220;28;20044;-78
2021/03/04 06:30:42;;;;;;;102.00;40.50;;;;;;;7.15;100.00;97976.69;5113854;28;20512;-77
2021/03/04 06:33:12;;;;;;;91.22;40.72;;;;;;;7.18;100.00;97975.31;5110247;28;20048;-76
2021/03/04 06:35:43;;;;;;;92.57;40.13;;;;;;;7.11;100.00;97982.91;5111359;28;20409;-77
2021/03/04 06:38:19;;;;;;;98.00;40.28;;;;;;;7.10;100.00;97982.13;5111616;28;20100;-77
2021/03/04 06:40:46;;;;;;;104.88;41.50;;;;;;;7.19;100.00;97982.31;5094428;28;20418;-77
2021/03/04 06:43:23;;;;;;;99.38;40.38;;;;;;;7.26;100.00;97980.88;5110909;28;20044;-77
2021/03/04 06:45:50;;;;;;;93.88;39.55;;;;;;;7.32;100.00;97970.88;5110125;28;20043;-77
2021/03/04 06:48:22;;;;;;;90.47;39.33;;;;;;;7.34;100.00;97974.06;5109342;28;20054;-77
2021/03/04 06:50:56;;;;;;;85.55;37.60;;;;;;;7.37;100.00;97965.44;5109657;28;20054;-77
2021/03/04 06:53:23;;;;;;;102.32;38.80;;;;;;;7.43;100.00;97965.06;5110863;28;20040;-78
2021/03/04 06:55:55;;;;;;;82.60;37.47;;;;;;;7.44;100.00;97965.88;5111145;28;20649;-77
2021/03/04 06:58:30;;;;;;;83.65;36.63;;;;;;;7.52;100.00;97970.63;5109567;28;20047;-77
2021/03/04 07:01:16;;;;;;;86.90;38.03;;;;;;;7.56;100.00;97965.50;5109550;28;20043;-77
2021/03/04 07:03:43;;;;;;;;;;;;;;;7.61;100.00;97960.03;5109669;28;20128;-77
2021/03/04 07:06:39;;;;;;;92.40;36.65;;;;;;;7.68;100.00;97961.31;5110023;28;19919;-78
2021/03/04 07:09:06;;;;;;;81.18;35.95;;;;;;;7.82;100.00;97956.78;5109715;28;20046;-76
2021/03/04 07:11:35;;;;;;;80.70;35.15;;;;;;;7.80;100.00;97955.47;5109272;28;20417;-77
2021/03/04 07:14:07;;;;;;;80.53;35.65;;;;;;;7.80;100.00;97955.47;5108738;28;20039;-77
2021/03/04 07:16:38;;;;;;;83.43;36.15;;;;;;;7.77;100.00;97948.00;5109369;28;20487;-76
2021/03/04 07:19:10;;;;;;;86.45;35.58;;;;;;;7.77;100.00;97951.47;5110992;28;20051;-78
2021/03/04 07:21:44;;;;;;;85.97;36.20;;;;;;;7.77;100.00;97950.69;5118216;28;20058;-78
2021/03/04 07:24:11;;;;;;;89.50;35.70;;;;;;;7.79;100.00;97948.50;5111030;28;20043;-78
2021/03/04 07:26:39;;;;;;;84.60;35.22;;;;;;;7.88;100.00;97942.19;5108190;28;20040;-77
2021/03/04 07:29:08;;;;;;;93.25;35.97;;;;;;;8.05;100.00;97950.56;5108532;28;20054;-78
2021/03/04 07:31:34;;;;;;;92.75;34.85;;;;;;;8.11;100.00;97946.72;5109612;28;20394;-78
2021/03/04 07:34:03;;;;;;;86.50;35.97;;;;;;;8.17;100.00;97944.75;5110540;28;20375;-78
2021/03/04 07:36:30;;;;;;;85.82;34.97;;;;;;;8.28;100.00;97934.66;5092731;28;20662;-77
2021/03/04 07:39:02;;;;;;;84.65;34.03;;;;;;;8.41;100.00;97947.41;5108773;28;20036;-78
2021/03/04 07:41:36;;;;;;;75.65;35.08;;;;;;;8.62;100.00;97933.28;5108816;28;20043;-77
2021/03/04 07:44:05;;;;;;;89.25;36.47;;;;;;;8.78;100.00;97928.44;5108489;28;20040;-80
2021/03/04 07:46:44;;;;;;;82.70;34.92;;;;;;;8.88;100.00;97919.38;5092697;28;20044;-78
2021/03/04 07:49:10;;;;;;;79.88;34.80;;;;;;;8.92;100.00;97920.38;5113399;28;20447;-77
2021/03/04 07:52:06;;;;;;;84.35;34.05;;;;;;;8.99;100.00;97923.47;5110235;28;20044;-78
2021/03/04 07:54:33;;;;;;;79.67;32.50;;;;;;;9.03;100.00;97924.50;5110136;28;20035;-77
2021/03/04 07:57:09;;;;;;;85.93;34.13;;;;;;;9.01;100.00;97915.88;5116135;28;20292;-79
2021/03/04 07:59:48;;;;;;;83.32;35.08;;;;;;;9.00;100.00;97914.31;5118115;28;20043;-78
2021/03/04 08:02:26;;;;;;;82.70;33.80;;;;;;;9.00;100.00;97920.50;5117507;28;20065;-77
2021/03/04 08:05:05;;;;;;;79.65;34.22;;;;;;;8.97;100.00;97912.19;5118603;28;20054;-79
2021/03/04 08:07:31;;;;;;;80.47;35.92;;;;;;;9.01;100.00;97907.78;5116156;28;20047;-78
2021/03/04 08:10:04;;;;;;;78.18;35.05;;;;;;;9.06;100.00;97910.41;5114633;28;20039;-79
2021/03/04 08:12:31;;;;;;;84.32;34.83;;;;;;;9.06;100.00;97905.78;5095665;28;20066;-79
2021/03/04 08:14:58;;;;;;;80.35;36.38;;;;;;;9.11;100.00;97902.22;5076350;28;20062;-77
2021/03/04 08:17:37;;;;;;;74.68;33.35;;;;;;;9.12;100.00;97893.00;5110326;28;20049;-78
2021/03/04 08:20:17;;;;;;;79.22;34.25;;;;;;;9.16;100.00;97900.19;5116753;28;20044;-80
2021/03/04 08:22:47;;;;;;;86.40;35.53;;;;;;;9.36;100.00;97893.63;5118046;28;20457;-79
2021/03/04 08:25:21;;;;;;;77.53;34.83;;;;;;;9.71;100.00;97898.28;5118793;28;20044;-78
2021/03/04 08:27:48;;;;;;;78.18;34.95;;;;;;;9.89;100.00;97885.75;5117149;28;20063;-79
2021/03/04 08:30:24;;;;;;;84.40;34.05;;;;;;;9.88;100.00;97882.22;5118796;28;20055;-79
2021/03/04 08:32:53;;;;;;;73.75;33.28;;;;;;;9.94;100.00;97888.34;5119172;28;20069;-79
2021/03/04 08:35:21;;;;;;;89.40;33.97;;;;;;;9.89;100.00;97883.84;5116994;28;20040;-79
2021/03/04 08:38:02;;;;;;;74.95;34.88;;;;;;;9.93;100.00;97892.97;5117005;28;20058;-79
2021/03/04 08:40:48;;;;;;;77.95;34.97;;;;;;;9.85;100.00;97885.56;5116741;28;20043;-78
2021/03/04 08:43:22;;;;;;;80.65;33.63;;;;;;;9.79;100.00;97892.19;5098640;28;20054;-78
2021/03/04 08:45:54;;;;;;;82.55;34.50;;;;;;;9.75;100.00;97895.81;5117242;28;20122;-79
2021/03/04 08:48:22;;;;;;;95.07;36.63;;;;;;;9.61;100.00;97898.50;5117464;28;20434;-79
2021/03/04 08:50:50;;;;;;;91.65;35.90;;;;;;;9.57;100.00;97881.31;5117359;28;20047;-79
2021/03/04 08:53:18;;;;;;;87.05;36.42;;;;;;;9.50;100.00;97894.41;5119361;28;20103;-79
2021/03/04 08:55:53;;;;;;;84.03;36.60;;;;;;;9.50;100.00;97886.28;5135181;27;20047;-78
2021/03/04 08:58:21;;;;;;;89.00;37.30;;;;;;;9.50;100.00;97877.41;5136890;27;20044;-78
2021/03/04 09:00:54;;;;;;;93.95;36.50;;;;;;;9.47;100.00;97883.41;5137555;27;20049;-78
2021/03/04 09:03:25;;;;;;;86.97;37.65;;;;;;;9.40;100.00;97887.31;5136633;27;20082;-78
2021/03/04 09:06:04;;;;;;;89.55;37.20;;;;;;;9.31;100.00;97880.22;5134124;27;20085;-78
2021/03/04 09:08:45;;;;;;;82.82;38.20;;;;;;;9.49;100.00;97876.59;5135790;27;20070;-78
2021/03/04 09:11:33;;;;;;;86.13;37.60;;;;;;;9.89;100.00;97870.31;5138114;27;20043;-79
2021/03/04 09:14:04;;;;;;;87.60;37.90;;;;;;;10.25;100.00;97870.34;5136401;27;20069;-79
2021/03/04 09:16:48;;;;;;;89.93;37.15;;;;;;;10.44;100.00;97856.63;5141161;27;20047;-79
2021/03/04 09:19:35;;;;;;;86.03;38.40;;;;;;;10.42;100.00;97865.06;5139074;27;20092;-79
2021/03/04 09:22:09;;;;;;;;;;;;;;;10.35;100.00;97861.97;5120228;27;20068;-78
2021/03/04 09:24:38;;;;;;;84.85;36.67;;;;;;;10.09;100.00;97852.06;5140575;27;19931;-78
2021/03/04 09:27:05;;;;;;;99.38;40.65;;;;;;;9.93;100.00;97860.50;5140686;27;20051;-78
2021/03/04 09:29:33;;;;;;;93.45;38.53;;;;;;;9.91;100.00;97856.53;5139193;27;20043;-77
2021/03/04 09:31:59;;;;;;;85.30;37.80;;;;;;;10.00;100.00;97860.88;5135918;27;20071;-77
2021/03/04 09:34:35;;;;;;;82.63;38.05;;;;;;;10.10;100.00;97854.44;5134379;27;20037;-78
2021/03/04 09:37:25;;;;;;;90.13;38.17;;;;;;;10.25;100.00;97837.88;5136187;27;20043;-77
2021/03/04 09:39:54;;;;;;;84.05;38.33;;;;;;;10.66;100.00;97843.06;5126017;27;20170;-77
2021/03/04 09:42:29;;;;;;;85.15;38.38;;;;;;;10.83;100.00;97840.47;5135273;27;20047;-77
2021/03/04 09:44:57;;;;;;;85.18;37.45;;;;;;;10.96;100.00;97842.28;5134954;27;20039;-79
2021/03/04 09:47:30;;;;;;;93.47;39.30;;;;;;;10.60;100.00;97844.31;5133502;27;20047;-77
2021/03/04 09:49:58;;;;;;;84.10;38.65;;;;;;;10.16;100.00;97849.75;5135727;27;20050;-77
2021/03/04 09:52:27;;;;;;;90.20;40.65;;;;;;;9.85;100.00;97834.19;5138801;27;20039;-77
2021/03/04 09:55:17;;;;;;;94.57;39.08;;;;;;;9.59;100.00;97853.97;5139678;27;20047;-77
2021/03/04 09:57:46;;;;;;;96.10;38.20;;;;;;;9.51;100.00;97847.38;5118110;27;20127;-77
2021/03/04 10:00:16;;;;;;;88.07;37.88;;;;;;;9.57;100.00;97839.97;5117196;27;20492;-78
2021/03/04 10:02:44;;;;;;;92.47;39.03;;;;;;;9.66;100.00;97825.41;5116241;27;20414;-78
2021/03/04 10:05:16;;;;;;;86.38;39.30;;;;;;;10.00;100.00;97838.44;5132630;27;20492;-78
2021/03/04 10:07:42;;;;;;;88.32;39.65;;;;;;;10.58;100.00;97828.38;5133491;27;20440;-78
2021/03/04 10:10:20;;;;;;;89.22;40.05;;;;;;;10.56;100.00;97821.66;5138133;27;20050;-77
2021/03/04 10:12:56;;;;;;;91.45;38.08;;;;;;;10.67;100.00;97819.50;5119433;27;20051;-77
2021/03/04 10:15:23;;;;;;;102.40;39.17;;;;;;;10.67;100.00;97814.09;5063442;22;20054;-75
2021/03/04 10:17:50;;;;;;;87.75;37.75;;;;;;;10.56;100.00;97822.47;5009562;28;20141;-75
2021/03/04 10:20:17;;;;;;;88.15;37.80;;;;;;;10.55;100.00;97820.09;5014429;28;20140;-74
2021/03/04 10:22:43;;;;;;;88.28;38.40;;;;;;;10.88;100.00;97829.50;5016856;28;20046;-74
2021/03/04 10:25:13;;;;;;;92.28;38.47;;;;;;;10.85;100.00;97822.00;5010949;28;20037;-75
2021/03/04 10:27:42;;;;;;;90.65;38.30;;;;;;;10.95;100.00;97821.72;5012328;28;20045;-74
2021/03/04 10:30:10;;;;;;;90.55;40.00;;;;;;;11.03;100.00;97812.84;5012909;28;20068;-76
2021/03/04 10:32:37;;;;;;;85.80;39.95;;;;;;;11.13;100.00;97815.25;5011740;28;20401;-75
2021/03/04 10:35:11;;;;;;;91.90;39.40;;;;;;;11.05;100.00;97807.88;5011820;28;20048;-76
2021/03/04 10:37:38;;;;;;;93.82;40.33;;;;;;;10.91;100.00;97823.47;5011265;28;20133;-76
2021/03/04 10:40:10;;;;;;;102.03;40.15;;;;;;;10.90;100.00;97815.63;5012267;28;20050;-76
2021/03/04 10:42:36;;;;;;;87.95;39.33;;;;;;;10.83;100.00;97813.38;5012107;28;20073;-77
2021/03/04 10:45:10;;;;;;;90.68;39.28;;;;;;;10.89;100.00;97820.25;5014916;28;20042;-77
2021/03/04 10:47:40;;;;;;;93.80;41.25;;;;;;;10.73;100.00;97800.13;5012495;28;20050;-76
2021/03/04 10:50:09;;;;;;;90.47;41.65;;;;;;;10.69;100.00;97811.88;5010429;28;20058;-76
2021/03/04 10:52:35;;;;;;;90.57;37.55;;;;;;;10.58;100.00;97797.81;5011093;28;20452;-74
2021/03/04 10:55:02;;;;;;;85.00;40.38;;;;;;;10.57;100.00;97794.31;5009922;28;20120;-76
2021/03/04 10:57:28;;;;;;;92.78;40.60;;;;;;;10.68;100.00;97797.56;5009931;28;20128;-76
2021/03/04 10:59:55;;;;;;;87.82;40.58;;;;;;;10.60;100.00;97798.31;5009990;28;20046;-76
2021/03/04 11:02:22;;;;;;;87.30;40.80;;;;;;;10.56;100.00;97795.41;5008950;28;20046;-76
2021/03/04 11:04:48;;;;;;;84.00;37.40;;;;;;;10.55;100.00;97793.81;5007941;28;20628;-75
2021/03/04 11:07:14;;;;;;;88.32;39.42;;;;;;;10.37;100.00;97788.63;5007859;28;20078;-75
2021/03/04 11:09:41;;;;;;;83.00;39.58;;;;;;;10.45;100.00;97791.34;5007058;28;20054;-76
2021/03/04 11:12:07;;;;;;;95.45;40.30;;;;;;;10.44;100.00;97791.69;5007574;28;20038;-76
2021/03/04 11:14:34;;;;;;;97.60;41.28;;;;;;;10.38;100.00;97774.75;5008187;28;20042;-76
2021/03/04 11:17:01;;;;;;;88.68;40.13;;;;;;;10.33;100.00;97774.09;5007270;28;20133;-75
2021/03/04 11:19:27;;;;;;;88.40;41.75;;;;;;;10.35;100.00;97778.09;5007248;28;20125;-73
2021/03/04 11:21:56;;;;;;;91.50;39.95;;;;;;;10.41;100.00;97767.94;5007394;28;20121;-77
2021/03/04 11:24:22;;;;;;;89.65;41.38;;;;;;;10.47;100.00;97764.00;5007585;28;20045;-75
2021/03/04 11:26:49;;;;;;;94.53;41.30;;;;;;;10.63;100.00;97771.38;5010436;28;20038;-74
2021/03/04 11:29:15;;;;;;;89.97;41.72;;;;;;;10.76;100.00;97769.72;5008333;28;20046;-73